sensor_id;sensor_type;location;lat;lon;timestamp;temperature;humidity
32753;DHT22;19121;52.428;10.816;2022-09-27T00:00:59;20.50;50.30
32753;DHT22;19121;52.428;10.816;2022-09-27T00:03:25;20.50;50.30
32753;DHT22;19121;52.428;10.816;2022-09-27T00:06:29;20.50;50.30
32753;DHT22;19121;52.428;10.816;2022-09-27T00:08:54;20.50;50.30
32753;DHT22;19121;52.428;10.816;2022-09-27T00:11:28;20.50;50.40
32753;DHT22;19121;52.428;10.816;2022-09-27T00:13:55;20.50;50.40
32753;DHT22;19121;52.428;10.816;2022-09-27T00:16:22;20.50;50.40
32753;DHT22;19121;52.428;10.816;2022-09-27T00:18:48;20.50;50.40
32753;DHT22;19121;52.428;10.816;2022-09-27T00:21:13;20.50;50.40
32753;DHT22;19121;52.428;10.816;2022-09-27T00:23:39;20.50;50.40
32753;DHT22;19121;52.428;10.816;2022-09-27T00:26:06;20.50;50.40
32753;DHT22;19121;52.428;10.816;2022-09-27T00:28:32;20.50;50.40
32753;DHT22;19121;52.428;10.816;2022-09-27T00:30:58;20.50;50.50
32753;DHT22;19121;52.428;10.816;2022-09-27T00:33:24;20.50;50.50
32753;DHT22;19121;52.428;10.816;2022-09-27T00:35:50;20.40;50.40
32753;DHT22;19121;52.428;10.816;2022-09-27T00:38:16;20.50;50.50
32753;DHT22;19121;52.428;10.816;2022-09-27T00:40:41;20.50;50.50
32753;DHT22;19121;52.428;10.816;2022-09-27T00:43:25;20.50;50.50
32753;DHT22;19121;52.428;10.816;2022-09-27T00:46:01;20.40;50.50
32753;DHT22;19121;52.428;10.816;2022-09-27T00:48:30;20.50;50.50
32753;DHT22;19121;52.428;10.816;2022-09-27T00:51:00;20.40;50.40
32753;DHT22;19121;52.428;10.816;2022-09-27T00:53:33;20.40;50.50
32753;DHT22;19121;52.428;10.816;2022-09-27T00:56:02;20.50;50.50
32753;DHT22;19121;52.428;10.816;2022-09-27T00:58:32;20.40;50.50
32753;DHT22;19121;52.428;10.816;2022-09-27T01:01:02;20.40;50.50
32753;DHT22;19121;52.428;10.816;2022-09-27T01:03:51;20.40;50.50
32753;DHT22;19121;52.428;10.816;2022-09-27T01:06:20;20.40;51.00
32753;DHT22;19121;52.428;10.816;2022-09-27T01:08:46;20.40;50.60
32753;DHT22;19121;52.428;10.816;2022-09-27T01:11:17;20.40;50.60
32753;DHT22;19121;52.428;10.816;2022-09-27T01:16:45;20.40;50.60
32753;DHT22;19121;52.428;10.816;2022-09-27T01:22:06;20.40;50.60
32753;DHT22;19121;52.428;10.816;2022-09-27T01:25:01;20.40;50.60
32753;DHT22;19121;52.428;10.816;2022-09-27T01:28:15;20.40;50.60
32753;DHT22;19121;52.428;10.816;2022-09-27T01:34:08;20.40;51.30
32753;DHT22;19121;52.428;10.816;2022-09-27T01:42:05;20.40;50.70
32753;DHT22;19121;52.428;10.816;2022-09-27T01:47:04;20.40;50.70
32753;DHT22;19121;52.428;10.816;2022-09-27T01:49:46;20.40;50.70
32753;DHT22;19121;52.428;10.816;2022-09-27T01:52:17;20.40;50.70
32753;DHT22;19121;52.428;10.816;2022-09-27T01:54:46;20.30;50.70
32753;DHT22;19121;52.428;10.816;2022-09-27T01:57:20;20.30;50.70
32753;DHT22;19121;52.428;10.816;2022-09-27T01:59:52;20.30;50.70
32753;DHT22;19121;52.428;10.816;2022-09-27T02:02:22;20.30;50.70
32753;DHT22;19121;52.428;10.816;2022-09-27T02:04:50;20.30;50.70
32753;DHT22;19121;52.428;10.816;2022-09-27T02:07:22;20.30;50.70
32753;DHT22;19121;52.428;10.816;2022-09-27T02:09:57;20.40;50.80
32753;DHT22;19121;52.428;10.816;2022-09-27T02:12:27;20.30;50.70
32753;DHT22;19121;52.428;10.816;2022-09-27T02:14:59;20.30;50.70
32753;DHT22;19121;52.428;10.816;2022-09-27T02:17:54;20.30;50.70
32753;DHT22;19121;52.428;10.816;2022-09-27T02:20:38;20.30;50.70
32753;DHT22;19121;52.428;10.816;2022-09-27T02:23:28;20.30;50.80
32753;DHT22;19121;52.428;10.816;2022-09-27T02:26:03;20.30;50.70
32753;DHT22;19121;52.428;10.816;2022-09-27T02:28:52;20.30;50.70
32753;DHT22;19121;52.428;10.816;2022-09-27T02:31:18;20.30;50.80
32753;DHT22;19121;52.428;10.816;2022-09-27T02:33:45;20.30;50.80
32753;DHT22;19121;52.428;10.816;2022-09-27T02:36:11;20.30;50.80
32753;DHT22;19121;52.428;10.816;2022-09-27T02:38:37;20.30;50.80
32753;DHT22;19121;52.428;10.816;2022-09-27T02:41:02;20.30;50.80
32753;DHT22;19121;52.428;10.816;2022-09-27T02:43:30;20.30;50.80
32753;DHT22;19121;52.428;10.816;2022-09-27T02:46:27;20.30;50.80
32753;DHT22;19121;52.428;10.816;2022-09-27T02:49:38;20.30;50.80
32753;DHT22;19121;52.428;10.816;2022-09-27T02:58:15;20.30;50.80
32753;DHT22;19121;52.428;10.816;2022-09-27T03:01:08;20.30;50.90
32753;DHT22;19121;52.428;10.816;2022-09-27T03:03:51;20.30;50.90
32753;DHT22;19121;52.428;10.816;2022-09-27T03:06:20;20.30;50.90
32753;DHT22;19121;52.428;10.816;2022-09-27T03:08:46;20.30;51.00
32753;DHT22;19121;52.428;10.816;2022-09-27T03:11:12;20.30;50.90
32753;DHT22;19121;52.428;10.816;2022-09-27T03:13:38;20.20;50.90
32753;DHT22;19121;52.428;10.816;2022-09-27T03:16:06;20.30;51.00
32753;DHT22;19121;52.428;10.816;2022-09-27T03:18:32;20.30;51.00
32753;DHT22;19121;52.428;10.816;2022-09-27T03:20:58;20.20;50.90
32753;DHT22;19121;52.428;10.816;2022-09-27T03:23:23;20.20;50.90
32753;DHT22;19121;52.428;10.816;2022-09-27T03:25:49;20.20;51.00
32753;DHT22;19121;52.428;10.816;2022-09-27T03:28:15;20.30;51.00
32753;DHT22;19121;52.428;10.816;2022-09-27T03:30:41;20.30;51.00
32753;DHT22;19121;52.428;10.816;2022-09-27T03:33:08;20.20;51.00
32753;DHT22;19121;52.428;10.816;2022-09-27T03:35:34;20.30;51.10
32753;DHT22;19121;52.428;10.816;2022-09-27T03:38:00;20.20;51.00
32753;DHT22;19121;52.428;10.816;2022-09-27T03:40:25;20.20;51.00
32753;DHT22;19121;52.428;10.816;2022-09-27T03:42:51;20.20;51.00
32753;DHT22;19121;52.428;10.816;2022-09-27T03:45:16;20.20;51.10
32753;DHT22;19121;52.428;10.816;2022-09-27T03:47:42;20.20;51.00
32753;DHT22;19121;52.428;10.816;2022-09-27T03:50:09;20.20;51.10
32753;DHT22;19121;52.428;10.816;2022-09-27T03:52:35;20.20;51.10
32753;DHT22;19121;52.428;10.816;2022-09-27T03:55:01;20.20;51.10
32753;DHT22;19121;52.428;10.816;2022-09-27T03:57:27;20.20;51.20
32753;DHT22;19121;52.428;10.816;2022-09-27T03:59:53;20.20;51.10
32753;DHT22;19121;52.428;10.816;2022-09-27T04:02:18;20.20;51.10
32753;DHT22;19121;52.428;10.816;2022-09-27T04:04:44;20.20;51.20
32753;DHT22;19121;52.428;10.816;2022-09-27T04:07:10;20.20;51.20
32753;DHT22;19121;52.428;10.816;2022-09-27T04:09:35;20.20;51.20
32753;DHT22;19121;52.428;10.816;2022-09-27T04:12:02;20.20;51.20
32753;DHT22;19121;52.428;10.816;2022-09-27T04:14:28;20.20;51.20
32753;DHT22;19121;52.428;10.816;2022-09-27T04:16:53;20.30;51.30
32753;DHT22;19121;52.428;10.816;2022-09-27T04:19:18;20.20;51.30
32753;DHT22;19121;52.428;10.816;2022-09-27T04:21:44;20.30;51.40
32753;DHT22;19121;52.428;10.816;2022-09-27T04:24:09;20.20;51.30
32753;DHT22;19121;52.428;10.816;2022-09-27T04:26:36;20.20;51.30
32753;DHT22;19121;52.428;10.816;2022-09-27T04:29:02;20.20;51.30
32753;DHT22;19121;52.428;10.816;2022-09-27T04:31:28;20.20;51.40
32753;DHT22;19121;52.428;10.816;2022-09-27T04:33:54;20.20;51.40
32753;DHT22;19121;52.428;10.816;2022-09-27T04:36:21;20.20;51.40
32753;DHT22;19121;52.428;10.816;2022-09-27T04:38:59;20.20;51.40
32753;DHT22;19121;52.428;10.816;2022-09-27T04:41:25;20.20;51.40
32753;DHT22;19121;52.428;10.816;2022-09-27T04:43:53;20.20;51.40
32753;DHT22;19121;52.428;10.816;2022-09-27T04:46:18;20.20;51.40
32753;DHT22;19121;52.428;10.816;2022-09-27T04:48:45;20.20;51.40
32753;DHT22;19121;52.428;10.816;2022-09-27T04:51:11;20.20;51.50
32753;DHT22;19121;52.428;10.816;2022-09-27T04:53:37;20.20;51.50
32753;DHT22;19121;52.428;10.816;2022-09-27T04:56:03;20.20;51.50
32753;DHT22;19121;52.428;10.816;2022-09-27T04:58:30;20.20;51.50
32753;DHT22;19121;52.428;10.816;2022-09-27T05:00:57;20.20;51.50
32753;DHT22;19121;52.428;10.816;2022-09-27T05:03:23;20.20;51.50
32753;DHT22;19121;52.428;10.816;2022-09-27T05:05:49;20.20;51.50
32753;DHT22;19121;52.428;10.816;2022-09-27T05:08:14;20.20;51.60
32753;DHT22;19121;52.428;10.816;2022-09-27T05:10:40;20.20;51.60
32753;DHT22;19121;52.428;10.816;2022-09-27T05:13:05;20.20;51.60
32753;DHT22;19121;52.428;10.816;2022-09-27T05:15:31;20.20;51.60
32753;DHT22;19121;52.428;10.816;2022-09-27T05:17:57;20.20;51.60
32753;DHT22;19121;52.428;10.816;2022-09-27T05:20:23;20.20;51.60
32753;DHT22;19121;52.428;10.816;2022-09-27T05:22:50;20.20;51.60
32753;DHT22;19121;52.428;10.816;2022-09-27T05:25:16;20.20;51.60
32753;DHT22;19121;52.428;10.816;2022-09-27T05:27:41;20.20;51.60
32753;DHT22;19121;52.428;10.816;2022-09-27T05:30:07;20.20;51.60
32753;DHT22;19121;52.428;10.816;2022-09-27T05:32:34;20.20;51.60
32753;DHT22;19121;52.428;10.816;2022-09-27T05:35:00;20.20;51.60
32753;DHT22;19121;52.428;10.816;2022-09-27T05:37:25;20.20;51.60
32753;DHT22;19121;52.428;10.816;2022-09-27T05:39:51;20.20;51.70
32753;DHT22;19121;52.428;10.816;2022-09-27T05:42:17;20.20;51.70
32753;DHT22;19121;52.428;10.816;2022-09-27T05:44:43;20.20;51.70
32753;DHT22;19121;52.428;10.816;2022-09-27T05:47:13;20.20;51.70
32753;DHT22;19121;52.428;10.816;2022-09-27T05:49:40;20.20;51.80
32753;DHT22;19121;52.428;10.816;2022-09-27T05:52:05;20.10;52.30
32753;DHT22;19121;52.428;10.816;2022-09-27T05:54:31;20.20;51.90
32753;DHT22;19121;52.428;10.816;2022-09-27T05:56:57;20.10;51.80
32753;DHT22;19121;52.428;10.816;2022-09-27T05:59:24;20.10;52.00
32753;DHT22;19121;52.428;10.816;2022-09-27T06:01:50;20.10;52.20
32753;DHT22;19121;52.428;10.816;2022-09-27T06:04:17;20.10;52.20
32753;DHT22;19121;52.428;10.816;2022-09-27T06:06:43;20.20;52.20
32753;DHT22;19121;52.428;10.816;2022-09-27T06:09:10;20.20;52.50
32753;DHT22;19121;52.428;10.816;2022-09-27T06:11:35;20.20;52.40
32753;DHT22;19121;52.428;10.816;2022-09-27T06:14:01;20.20;52.40
32753;DHT22;19121;52.428;10.816;2022-09-27T06:16:26;20.20;52.50
32753;DHT22;19121;52.428;10.816;2022-09-27T06:18:52;20.20;53.00
32753;DHT22;19121;52.428;10.816;2022-09-27T06:21:18;20.20;53.20
32753;DHT22;19121;52.428;10.816;2022-09-27T06:23:43;20.20;53.30
32753;DHT22;19121;52.428;10.816;2022-09-27T06:26:09;20.30;53.50
32753;DHT22;19121;52.428;10.816;2022-09-27T06:28:35;20.30;53.30
32753;DHT22;19121;52.428;10.816;2022-09-27T06:31:00;20.30;53.60
32753;DHT22;19121;52.428;10.816;2022-09-27T06:33:26;20.30;53.40
32753;DHT22;19121;52.428;10.816;2022-09-27T06:35:55;20.30;53.40
32753;DHT22;19121;52.428;10.816;2022-09-27T06:38:20;20.30;53.30
32753;DHT22;19121;52.428;10.816;2022-09-27T06:40:47;20.30;53.50
32753;DHT22;19121;52.428;10.816;2022-09-27T06:43:17;20.30;53.50
32753;DHT22;19121;52.428;10.816;2022-09-27T06:45:44;20.30;53.40
32753;DHT22;19121;52.428;10.816;2022-09-27T06:48:11;20.30;53.20
32753;DHT22;19121;52.428;10.816;2022-09-27T06:50:38;20.30;53.10
32753;DHT22;19121;52.428;10.816;2022-09-27T06:53:05;20.40;53.70
32753;DHT22;19121;52.428;10.816;2022-09-27T06:55:32;20.40;53.00
32753;DHT22;19121;52.428;10.816;2022-09-27T06:57:59;20.40;53.00
32753;DHT22;19121;52.428;10.816;2022-09-27T07:00:44;20.40;52.90
32753;DHT22;19121;52.428;10.816;2022-09-27T07:03:13;20.40;53.00
32753;DHT22;19121;52.428;10.816;2022-09-27T07:05:39;20.40;53.00
32753;DHT22;19121;52.428;10.816;2022-09-27T07:08:09;20.40;53.00
32753;DHT22;19121;52.428;10.816;2022-09-27T07:10:38;20.40;53.00
32753;DHT22;19121;52.428;10.816;2022-09-27T07:13:08;20.40;53.10
32753;DHT22;19121;52.428;10.816;2022-09-27T07:15:34;20.40;53.10
32753;DHT22;19121;52.428;10.816;2022-09-27T07:18:02;20.40;53.10
32753;DHT22;19121;52.428;10.816;2022-09-27T07:20:28;20.40;53.20
32753;DHT22;19121;52.428;10.816;2022-09-27T07:22:54;20.40;53.20
32753;DHT22;19121;52.428;10.816;2022-09-27T07:25:19;20.40;53.20
32753;DHT22;19121;52.428;10.816;2022-09-27T07:27:45;20.40;53.20
32753;DHT22;19121;52.428;10.816;2022-09-27T07:30:11;20.40;53.20
32753;DHT22;19121;52.428;10.816;2022-09-27T07:32:37;20.40;53.30
32753;DHT22;19121;52.428;10.816;2022-09-27T07:35:05;20.40;53.30
32753;DHT22;19121;52.428;10.816;2022-09-27T07:37:32;20.40;53.30
32753;DHT22;19121;52.428;10.816;2022-09-27T07:39:58;20.40;53.30
32753;DHT22;19121;52.428;10.816;2022-09-27T07:42:24;20.40;53.30
32753;DHT22;19121;52.428;10.816;2022-09-27T07:44:50;20.50;53.30
32753;DHT22;19121;52.428;10.816;2022-09-27T07:47:15;20.50;53.40
32753;DHT22;19121;52.428;10.816;2022-09-27T07:49:42;20.50;53.40
32753;DHT22;19121;52.428;10.816;2022-09-27T07:52:08;20.50;53.50
32753;DHT22;19121;52.428;10.816;2022-09-27T07:54:33;20.50;53.70
32753;DHT22;19121;52.428;10.816;2022-09-27T07:56:59;20.50;54.00
32753;DHT22;19121;52.428;10.816;2022-09-27T07:59:24;20.50;54.10
32753;DHT22;19121;52.428;10.816;2022-09-27T08:01:50;20.50;54.10
32753;DHT22;19121;52.428;10.816;2022-09-27T08:04:17;20.50;54.20
32753;DHT22;19121;52.428;10.816;2022-09-27T08:06:42;20.50;54.20
32753;DHT22;19121;52.428;10.816;2022-09-27T08:09:08;20.60;54.10
32753;DHT22;19121;52.428;10.816;2022-09-27T08:11:34;20.60;54.20
32753;DHT22;19121;52.428;10.816;2022-09-27T08:14:01;20.60;54.20
32753;DHT22;19121;52.428;10.816;2022-09-27T08:16:28;20.60;54.10
32753;DHT22;19121;52.428;10.816;2022-09-27T08:18:54;20.60;54.00
32753;DHT22;19121;52.428;10.816;2022-09-27T08:21:19;20.60;53.80
32753;DHT22;19121;52.428;10.816;2022-09-27T08:23:45;20.60;53.80
32753;DHT22;19121;52.428;10.816;2022-09-27T08:26:10;20.60;53.80
32753;DHT22;19121;52.428;10.816;2022-09-27T08:28:36;20.60;53.80
32753;DHT22;19121;52.428;10.816;2022-09-27T08:31:01;20.60;53.70
32753;DHT22;19121;52.428;10.816;2022-09-27T08:33:26;20.60;53.60
32753;DHT22;19121;52.428;10.816;2022-09-27T08:35:52;20.60;53.60
32753;DHT22;19121;52.428;10.816;2022-09-27T08:38:18;20.60;53.60
32753;DHT22;19121;52.428;10.816;2022-09-27T08:41:27;20.60;53.50
32753;DHT22;19121;52.428;10.816;2022-09-27T08:44:05;20.70;53.60
32753;DHT22;19121;52.428;10.816;2022-09-27T08:46:51;20.60;53.60
32753;DHT22;19121;52.428;10.816;2022-09-27T08:49:24;20.70;53.60
32753;DHT22;19121;52.428;10.816;2022-09-27T08:51:52;20.70;53.60
32753;DHT22;19121;52.428;10.816;2022-09-27T08:54:25;20.70;53.60
32753;DHT22;19121;52.428;10.816;2022-09-27T08:56:57;20.70;53.60
32753;DHT22;19121;52.428;10.816;2022-09-27T08:59:29;20.70;53.60
32753;DHT22;19121;52.428;10.816;2022-09-27T09:01:58;20.80;53.70
32753;DHT22;19121;52.428;10.816;2022-09-27T09:04:36;20.70;53.70
32753;DHT22;19121;52.428;10.816;2022-09-27T09:07:41;20.80;53.80
32753;DHT22;19121;52.428;10.816;2022-09-27T09:13:39;20.80;53.70
32753;DHT22;19121;52.428;10.816;2022-09-27T09:19:26;20.80;53.80
32753;DHT22;19121;52.428;10.816;2022-09-27T09:22:08;20.80;53.80
32753;DHT22;19121;52.428;10.816;2022-09-27T09:24:48;20.80;53.80
32753;DHT22;19121;52.428;10.816;2022-09-27T09:27:40;20.80;53.80
32753;DHT22;19121;52.428;10.816;2022-09-27T09:30:17;20.80;53.80
32753;DHT22;19121;52.428;10.816;2022-09-27T09:32:52;20.90;53.90
32753;DHT22;19121;52.428;10.816;2022-09-27T09:35:25;20.80;53.90
32753;DHT22;19121;52.428;10.816;2022-09-27T09:37:57;20.90;53.90
32753;DHT22;19121;52.428;10.816;2022-09-27T09:40:36;20.90;53.90
32753;DHT22;19121;52.428;10.816;2022-09-27T09:43:14;20.90;53.90
32753;DHT22;19121;52.428;10.816;2022-09-27T09:45:47;20.90;54.00
32753;DHT22;19121;52.428;10.816;2022-09-27T09:48:32;20.90;54.00
32753;DHT22;19121;52.428;10.816;2022-09-27T09:51:01;20.90;54.00
32753;DHT22;19121;52.428;10.816;2022-09-27T09:53:35;20.90;54.00
32753;DHT22;19121;52.428;10.816;2022-09-27T09:56:13;20.90;54.10
32753;DHT22;19121;52.428;10.816;2022-09-27T09:58:48;21.00;54.20
32753;DHT22;19121;52.428;10.816;2022-09-27T10:01:22;20.90;54.20
32753;DHT22;19121;52.428;10.816;2022-09-27T10:03:49;20.90;54.30
32753;DHT22;19121;52.428;10.816;2022-09-27T10:06:15;20.90;54.30
32753;DHT22;19121;52.428;10.816;2022-09-27T10:08:42;20.90;54.30
32753;DHT22;19121;52.428;10.816;2022-09-27T10:11:18;20.90;54.40
32753;DHT22;19121;52.428;10.816;2022-09-27T10:13:45;20.90;54.40
32753;DHT22;19121;52.428;10.816;2022-09-27T10:16:15;20.90;54.60
32753;DHT22;19121;52.428;10.816;2022-09-27T10:18:41;21.00;54.60
32753;DHT22;19121;52.428;10.816;2022-09-27T10:21:24;21.00;54.60
32753;DHT22;19121;52.428;10.816;2022-09-27T10:26:29;21.00;54.50
32753;DHT22;19121;52.428;10.816;2022-09-27T10:28:55;21.10;54.50
32753;DHT22;19121;52.428;10.816;2022-09-27T10:31:21;21.10;54.40
32753;DHT22;19121;52.428;10.816;2022-09-27T10:34:03;21.10;54.30
32753;DHT22;19121;52.428;10.816;2022-09-27T10:36:33;21.20;54.40
32753;DHT22;19121;52.428;10.816;2022-09-27T10:39:02;21.20;54.20
32753;DHT22;19121;52.428;10.816;2022-09-27T10:46:43;21.30;54.10
32753;DHT22;19121;52.428;10.816;2022-09-27T10:49:21;21.30;54.20
32753;DHT22;19121;52.428;10.816;2022-09-27T10:51:58;21.30;54.20
32753;DHT22;19121;52.428;10.816;2022-09-27T10:54:27;21.40;54.30
32753;DHT22;19121;52.428;10.816;2022-09-27T10:57:04;21.40;54.20
32753;DHT22;19121;52.428;10.816;2022-09-27T10:59:35;21.40;54.30
32753;DHT22;19121;52.428;10.816;2022-09-27T11:02:03;21.40;54.20
32753;DHT22;19121;52.428;10.816;2022-09-27T11:04:32;21.40;54.20
32753;DHT22;19121;52.428;10.816;2022-09-27T11:07:12;21.40;54.20
32753;DHT22;19121;52.428;10.816;2022-09-27T11:09:52;21.50;54.20
32753;DHT22;19121;52.428;10.816;2022-09-27T11:12:19;21.50;54.10
32753;DHT22;19121;52.428;10.816;2022-09-27T11:14:57;21.50;54.00
32753;DHT22;19121;52.428;10.816;2022-09-27T11:17:28;21.60;54.10
32753;DHT22;19121;52.428;10.816;2022-09-27T11:20:20;21.60;54.00
32753;DHT22;19121;52.428;10.816;2022-09-27T11:23:12;21.60;54.10
32753;DHT22;19121;52.428;10.816;2022-09-27T11:29:00;21.60;54.10
32753;DHT22;19121;52.428;10.816;2022-09-27T11:34:46;21.70;54.00
32753;DHT22;19121;52.428;10.816;2022-09-27T11:37:30;21.70;53.90
32753;DHT22;19121;52.428;10.816;2022-09-27T11:46:17;21.80;53.70
32753;DHT22;19121;52.428;10.816;2022-09-27T11:55:03;21.90;53.50
32753;DHT22;19121;52.428;10.816;2022-09-27T12:01:23;21.90;53.50
32753;DHT22;19121;52.428;10.816;2022-09-27T12:07:20;22.00;53.40
32753;DHT22;19121;52.428;10.816;2022-09-27T12:09:52;21.90;53.50
32753;DHT22;19121;52.428;10.816;2022-09-27T12:12:19;21.90;53.40
32753;DHT22;19121;52.428;10.816;2022-09-27T12:14:52;21.90;53.50
32753;DHT22;19121;52.428;10.816;2022-09-27T12:17:24;21.90;53.60
32753;DHT22;19121;52.428;10.816;2022-09-27T12:19:54;21.90;53.70
32753;DHT22;19121;52.428;10.816;2022-09-27T12:22:26;21.90;53.70
32753;DHT22;19121;52.428;10.816;2022-09-27T12:24:53;21.80;53.70
32753;DHT22;19121;52.428;10.816;2022-09-27T12:27:31;21.90;53.70
32753;DHT22;19121;52.428;10.816;2022-09-27T12:30:00;21.90;53.70
32753;DHT22;19121;52.428;10.816;2022-09-27T12:32:42;21.90;53.60
32753;DHT22;19121;52.428;10.816;2022-09-27T12:37:47;21.90;53.50
32753;DHT22;19121;52.428;10.816;2022-09-27T12:40:18;21.90;53.50
32753;DHT22;19121;52.428;10.816;2022-09-27T12:42:56;21.90;53.50
32753;DHT22;19121;52.428;10.816;2022-09-27T12:51:09;21.90;53.50
32753;DHT22;19121;52.428;10.816;2022-09-27T12:56:34;22.00;53.50
32753;DHT22;19121;52.428;10.816;2022-09-27T13:02:35;21.90;53.50
32753;DHT22;19121;52.428;10.816;2022-09-27T13:05:39;21.90;53.50
32753;DHT22;19121;52.428;10.816;2022-09-27T13:08:25;22.00;53.60
32753;DHT22;19121;52.428;10.816;2022-09-27T13:11:20;21.90;53.50
32753;DHT22;19121;52.428;10.816;2022-09-27T13:13:48;21.90;53.60
32753;DHT22;19121;52.428;10.816;2022-09-27T13:16:14;21.90;53.60
32753;DHT22;19121;52.428;10.816;2022-09-27T13:18:57;21.90;53.50
32753;DHT22;19121;52.428;10.816;2022-09-27T13:32:38;21.80;53.90
32753;DHT22;19121;52.428;10.816;2022-09-27T13:35:29;21.90;54.00
32753;DHT22;19121;52.428;10.816;2022-09-27T13:37:56;21.90;53.80
32753;DHT22;19121;52.428;10.816;2022-09-27T13:40:32;21.90;54.00
32753;DHT22;19121;52.428;10.816;2022-09-27T13:45:38;22.00;54.00
32753;DHT22;19121;52.428;10.816;2022-09-27T13:48:12;22.00;54.10
32753;DHT22;19121;52.428;10.816;2022-09-27T13:50:52;22.00;54.10
32753;DHT22;19121;52.428;10.816;2022-09-27T13:53:34;22.00;53.80
32753;DHT22;19121;52.428;10.816;2022-09-27T13:56:01;22.00;53.70
32753;DHT22;19121;52.428;10.816;2022-09-27T14:01:19;22.00;53.50
32753;DHT22;19121;52.428;10.816;2022-09-27T14:03:47;22.00;53.60
32753;DHT22;19121;52.428;10.816;2022-09-27T14:06:19;22.00;53.50
32753;DHT22;19121;52.428;10.816;2022-09-27T14:08:51;22.10;53.70
32753;DHT22;19121;52.428;10.816;2022-09-27T14:11:31;22.00;53.70
32753;DHT22;19121;52.428;10.816;2022-09-27T14:13:58;22.10;53.90
32753;DHT22;19121;52.428;10.816;2022-09-27T14:16:29;22.00;53.90
32753;DHT22;19121;52.428;10.816;2022-09-27T14:18:56;22.00;53.70
32753;DHT22;19121;52.428;10.816;2022-09-27T14:21:35;22.00;53.70
32753;DHT22;19121;52.428;10.816;2022-09-27T14:24:27;22.00;54.00
32753;DHT22;19121;52.428;10.816;2022-09-27T14:27:11;22.00;53.70
32753;DHT22;19121;52.428;10.816;2022-09-27T14:29:43;22.10;53.80
32753;DHT22;19121;52.428;10.816;2022-09-27T14:32:19;22.00;53.60
32753;DHT22;19121;52.428;10.816;2022-09-27T14:34:45;22.00;53.40
32753;DHT22;19121;52.428;10.816;2022-09-27T14:37:20;22.00;53.40
32753;DHT22;19121;52.428;10.816;2022-09-27T14:42:32;22.00;53.40
32753;DHT22;19121;52.428;10.816;2022-09-27T14:45:04;22.00;53.30
32753;DHT22;19121;52.428;10.816;2022-09-27T14:47:31;22.00;53.20
32753;DHT22;19121;52.428;10.816;2022-09-27T14:50:11;22.00;53.20
32753;DHT22;19121;52.428;10.816;2022-09-27T14:52:38;22.00;53.30
32753;DHT22;19121;52.428;10.816;2022-09-27T14:55:12;22.00;53.60
32753;DHT22;19121;52.428;10.816;2022-09-27T14:57:51;22.00;53.30
32753;DHT22;19121;52.428;10.816;2022-09-27T15:00:23;22.00;53.10
32753;DHT22;19121;52.428;10.816;2022-09-27T15:02:52;22.00;53.00
32753;DHT22;19121;52.428;10.816;2022-09-27T15:05:21;22.00;52.90
32753;DHT22;19121;52.428;10.816;2022-09-27T15:07:49;22.00;52.80
32753;DHT22;19121;52.428;10.816;2022-09-27T15:10:18;22.00;52.70
32753;DHT22;19121;52.428;10.816;2022-09-27T15:12:46;22.00;52.80
32753;DHT22;19121;52.428;10.816;2022-09-27T15:15:14;22.00;53.00
32753;DHT22;19121;52.428;10.816;2022-09-27T15:17:42;21.90;53.20
32753;DHT22;19121;52.428;10.816;2022-09-27T15:20:24;22.00;53.20
32753;DHT22;19121;52.428;10.816;2022-09-27T15:22:53;22.00;53.20
32753;DHT22;19121;52.428;10.816;2022-09-27T15:25:28;22.00;53.20
32753;DHT22;19121;52.428;10.816;2022-09-27T15:30:46;22.00;53.10
32753;DHT22;19121;52.428;10.816;2022-09-27T15:33:18;21.90;53.10
32753;DHT22;19121;52.428;10.816;2022-09-27T15:35:50;21.90;52.70
32753;DHT22;19121;52.428;10.816;2022-09-27T15:38:27;21.90;52.60
32753;DHT22;19121;52.428;10.816;2022-09-27T15:43:42;21.90;52.50
32753;DHT22;19121;52.428;10.816;2022-09-27T15:49:22;21.90;52.50
32753;DHT22;19121;52.428;10.816;2022-09-27T15:51:55;21.80;52.50
32753;DHT22;19121;52.428;10.816;2022-09-27T15:54:23;21.80;52.50
32753;DHT22;19121;52.428;10.816;2022-09-27T15:56:51;21.80;52.60
32753;DHT22;19121;52.428;10.816;2022-09-27T16:01:47;21.80;52.60
32753;DHT22;19121;52.428;10.816;2022-09-27T16:04:13;21.80;52.60
32753;DHT22;19121;52.428;10.816;2022-09-27T16:06:38;21.70;52.50
32753;DHT22;19121;52.428;10.816;2022-09-27T16:09:14;21.70;52.50
32753;DHT22;19121;52.428;10.816;2022-09-27T16:11:42;21.70;52.60
32753;DHT22;19121;52.428;10.816;2022-09-27T16:14:07;21.70;52.50
32753;DHT22;19121;52.428;10.816;2022-09-27T16:16:33;21.70;52.50
32753;DHT22;19121;52.428;10.816;2022-09-27T16:18:58;21.70;52.50
32753;DHT22;19121;52.428;10.816;2022-09-27T16:21:24;21.70;52.50
32753;DHT22;19121;52.428;10.816;2022-09-27T16:23:49;21.70;52.50
32753;DHT22;19121;52.428;10.816;2022-09-27T16:26:15;21.70;52.50
32753;DHT22;19121;52.428;10.816;2022-09-27T16:28:41;21.70;52.50
32753;DHT22;19121;52.428;10.816;2022-09-27T16:31:08;21.70;52.50
32753;DHT22;19121;52.428;10.816;2022-09-27T16:33:36;21.70;52.50
32753;DHT22;19121;52.428;10.816;2022-09-27T16:36:05;21.70;52.50
32753;DHT22;19121;52.428;10.816;2022-09-27T16:38:32;21.70;52.50
32753;DHT22;19121;52.428;10.816;2022-09-27T16:41:01;21.60;52.40
32753;DHT22;19121;52.428;10.816;2022-09-27T16:43:28;21.70;52.50
32753;DHT22;19121;52.428;10.816;2022-09-27T16:45:54;21.60;52.50
32753;DHT22;19121;52.428;10.816;2022-09-27T16:48:23;21.70;52.50
32753;DHT22;19121;52.428;10.816;2022-09-27T16:50:49;21.70;52.50
32753;DHT22;19121;52.428;10.816;2022-09-27T16:53:33;21.70;52.50
32753;DHT22;19121;52.428;10.816;2022-09-27T16:55:58;21.60;52.50
32753;DHT22;19121;52.428;10.816;2022-09-27T16:58:24;21.60;52.40
32753;DHT22;19121;52.428;10.816;2022-09-27T17:00:51;21.60;52.40
32753;DHT22;19121;52.428;10.816;2022-09-27T17:03:16;21.60;52.40
32753;DHT22;19121;52.428;10.816;2022-09-27T17:05:42;21.60;52.50
32753;DHT22;19121;52.428;10.816;2022-09-27T17:08:09;21.60;52.40
32753;DHT22;19121;52.428;10.816;2022-09-27T17:10:34;21.60;52.40
32753;DHT22;19121;52.428;10.816;2022-09-27T17:13:02;21.60;52.40
32753;DHT22;19121;52.428;10.816;2022-09-27T17:15:28;21.60;52.40
32753;DHT22;19121;52.428;10.816;2022-09-27T17:17:53;21.60;52.40
32753;DHT22;19121;52.428;10.816;2022-09-27T17:20:19;21.60;52.40
32753;DHT22;19121;52.428;10.816;2022-09-27T17:22:44;21.60;52.50
32753;DHT22;19121;52.428;10.816;2022-09-27T17:25:10;21.60;52.40